createdAt,value
2023-09-25T00:00:56.072Z,15.14
2023-09-25T00:06:14.646Z,15.15
2023-09-25T00:11:18.112Z,15.17
2023-09-25T00:16:27.492Z,15.17
2023-09-25T00:21:31.504Z,15.17
2023-09-25T00:26:37.492Z,15.16
2023-09-25T00:31:40.862Z,15.15
2023-09-25T00:36:46.373Z,15.13
2023-09-25T00:41:49.960Z,15.11
2023-09-25T00:46:56.021Z,15.09
2023-09-25T00:52:00.590Z,15.05
2023-09-25T00:57:07.579Z,15.03
2023-09-25T01:02:11.967Z,15.01
2023-09-25T01:07:18.059Z,14.98
2023-09-25T01:12:22.268Z,14.95
2023-09-25T01:17:26.300Z,14.94
2023-09-25T01:22:31.979Z,14.93
2023-09-25T01:27:35.371Z,14.92
2023-09-25T01:32:40.342Z,14.90
2023-09-25T01:37:46.222Z,14.89
2023-09-25T01:42:49.740Z,14.87
2023-09-25T01:47:56.694Z,14.83
2023-09-25T01:53:09.152Z,14.80
2023-09-25T01:58:14.984Z,14.80
2023-09-25T02:03:31.657Z,14.79
2023-09-25T02:08:35.628Z,14.78
2023-09-25T02:13:44.007Z,14.76
2023-09-25T02:18:52.968Z,14.71
2023-09-25T02:23:56.405Z,14.67
2023-09-25T02:28:59.887Z,14.65
2023-09-25T02:34:03.688Z,14.64
2023-09-25T02:39:10.219Z,14.64
2023-09-25T02:44:16.205Z,14.61
2023-09-25T02:49:30.349Z,14.58
2023-09-25T02:54:33.754Z,14.56
2023-09-25T02:59:40.297Z,14.53
2023-09-25T03:04:45.004Z,14.50
2023-09-25T03:09:48.553Z,14.46
2023-09-25T03:14:52.668Z,14.43
2023-09-25T03:19:55.926Z,14.40
2023-09-25T03:25:01.698Z,14.38
2023-09-25T03:30:06.937Z,14.34
2023-09-25T03:35:12.014Z,14.31
2023-09-25T03:40:18.462Z,14.27
2023-09-25T03:45:24.308Z,14.24
2023-09-25T03:50:29.691Z,14.21
2023-09-25T03:55:33.268Z,14.21
2023-09-25T04:00:39.083Z,14.17
2023-09-25T04:05:42.403Z,14.13
2023-09-25T04:10:45.737Z,14.11
2023-09-25T04:15:50.178Z,14.10
2023-09-25T04:20:53.510Z,14.09
2023-09-25T04:26:02.119Z,14.11
2023-09-25T04:31:06.817Z,14.12
2023-09-25T04:36:12.183Z,14.13
2023-09-25T04:41:15.690Z,14.15
2023-09-25T04:46:19.324Z,14.16
2023-09-25T04:51:22.601Z,14.19
2023-09-25T04:56:25.769Z,14.20
2023-09-25T05:01:32.115Z,14.22
2023-09-25T05:06:35.684Z,14.23
2023-09-25T05:11:39.145Z,14.25
2023-09-25T05:16:51.228Z,14.29
2023-09-25T05:21:55.004Z,14.34
2023-09-25T05:27:07.324Z,14.44
2023-09-25T05:32:10.763Z,14.66
2023-09-25T05:37:14.129Z,15.22
2023-09-25T05:42:17.840Z,16.32
2023-09-25T05:47:39.873Z,17.36
2023-09-25T05:52:48.313Z,17.85
2023-09-25T05:57:57.076Z,18.34
2023-09-25T06:03:00.625Z,18.78
2023-09-25T06:08:07.211Z,19.52
2023-09-25T06:13:11.114Z,20.23
2023-09-25T06:18:15.017Z,20.96
2023-09-25T06:23:18.267Z,21.75
2023-09-25T06:28:25.323Z,22.00
2023-09-25T06:33:30.263Z,21.70
2023-09-25T06:38:33.555Z,21.31
2023-09-25T06:43:37.548Z,21.38
2023-09-25T06:48:40.764Z,21.55
2023-09-25T06:53:44.300Z,21.73
2023-09-25T06:58:47.686Z,21.71
2023-09-25T07:03:51.468Z,21.68
2023-09-25T07:08:55.193Z,21.60
2023-09-25T07:14:08.011Z,21.57
2023-09-25T07:19:12.317Z,21.46
2023-09-25T07:24:15.778Z,21.32
2023-09-25T07:29:38.743Z,21.23
2023-09-25T07:34:44.388Z,21.12
2023-09-25T07:39:47.875Z,20.94
2023-09-25T07:44:51.197Z,20.81
2023-09-25T07:49:55.266Z,20.76
2023-09-25T07:54:58.528Z,20.69
2023-09-25T08:00:11.323Z,20.57
2023-09-25T08:05:22.963Z,20.61
2023-09-25T08:10:26.344Z,20.64
2023-09-25T08:15:29.827Z,20.59
2023-09-25T08:20:34.017Z,20.54
2023-09-25T08:25:37.309Z,20.52
2023-09-25T08:30:41.218Z,20.60
2023-09-25T08:35:44.681Z,20.70
2023-09-25T08:40:51.560Z,20.74
2023-09-25T08:45:56.636Z,20.72
2023-09-25T08:51:00.090Z,20.71
2023-09-25T08:56:03.386Z,20.70
2023-09-25T09:01:06.876Z,20.76
2023-09-25T09:06:10.195Z,20.84
2023-09-25T09:11:14.619Z,20.87
2023-09-25T09:16:20.667Z,20.95
2023-09-25T09:21:26.530Z,20.97
2023-09-25T09:26:30.326Z,20.96
2023-09-25T09:31:34.128Z,21.00
2023-09-25T09:36:38.581Z,21.08
2023-09-25T09:41:45.627Z,21.05
2023-09-25T09:46:51.818Z,21.05
2023-09-25T09:51:55.461Z,21.10
2023-09-25T09:57:01.848Z,21.16
2023-09-25T10:02:07.408Z,21.25
2023-09-25T10:07:11.380Z,21.25
2023-09-25T10:12:14.747Z,21.30
2023-09-25T10:17:18.292Z,21.39
2023-09-25T10:22:30.674Z,21.52
2023-09-25T10:27:38.009Z,21.64
2023-09-25T10:32:50.564Z,21.77
2023-09-25T10:38:29.232Z,21.85
2023-09-25T10:43:58.283Z,21.91
2023-09-25T10:49:02.130Z,21.95
2023-09-25T10:54:05.481Z,22.00
2023-09-25T10:59:08.880Z,21.94
2023-09-25T11:04:12.608Z,21.94
2023-09-25T11:09:19.970Z,22.11
2023-09-25T11:14:23.427Z,22.23
2023-09-25T11:19:26.644Z,22.34
2023-09-25T11:24:32.301Z,22.34
2023-09-25T11:29:37.105Z,22.39
2023-09-25T11:34:40.728Z,22.37
2023-09-25T11:39:45.035Z,22.32
2023-09-25T11:44:48.333Z,22.36
2023-09-25T11:49:53.113Z,22.40
2023-09-25T11:54:56.609Z,22.44
2023-09-25T12:00:00.114Z,22.38
2023-09-25T12:05:06.964Z,22.29
2023-09-25T12:10:18.247Z,22.25
2023-09-25T12:15:23.113Z,22.30
2023-09-25T12:20:27.368Z,22.38
2023-09-25T12:25:31.647Z,22.47
2023-09-25T12:30:35.361Z,22.50
2023-09-25T12:35:42.498Z,22.50
2023-09-25T12:40:45.959Z,22.57
2023-09-25T12:45:49.228Z,22.69
2023-09-25T12:50:52.875Z,22.81
2023-09-25T12:55:58.192Z,22.89
2023-09-25T13:01:01.701Z,22.92
2023-09-25T13:06:07.749Z,22.91
2023-09-25T13:11:10.901Z,22.90
2023-09-25T13:16:14.132Z,22.91
2023-09-25T13:21:18.029Z,22.93
2023-09-25T13:26:26.187Z,22.90
2023-09-25T13:31:29.582Z,22.86
2023-09-25T13:36:33.431Z,22.87
2023-09-25T13:41:36.669Z,22.82
2023-09-25T13:46:39.994Z,22.79
2023-09-25T13:51:43.313Z,22.80
2023-09-25T13:56:46.705Z,22.78
2023-09-25T14:01:50.790Z,22.77
2023-09-25T14:06:55.132Z,22.75
2023-09-25T14:11:58.792Z,22.73
2023-09-25T14:17:02.159Z,22.71
2023-09-25T14:22:05.875Z,22.68
2023-09-25T14:27:11.127Z,22.64
2023-09-25T14:32:14.783Z,22.59
2023-09-25T14:37:17.901Z,22.59
2023-09-25T14:42:21.281Z,22.57
2023-09-25T14:47:24.388Z,22.52
2023-09-25T14:52:27.561Z,22.45
2023-09-25T14:57:30.984Z,22.39
2023-09-25T15:02:34.805Z,22.36
2023-09-25T15:07:38.148Z,22.30
2023-09-25T15:12:41.374Z,22.25
2023-09-25T15:17:49.757Z,22.21
2023-09-25T15:22:53.016Z,22.15
2023-09-25T15:27:56.211Z,22.11
2023-09-25T15:32:59.436Z,22.03
2023-09-25T15:38:02.937Z,21.97
2023-09-25T15:43:06.119Z,21.89
2023-09-25T15:48:09.303Z,21.82
2023-09-25T15:53:13.201Z,21.73
2023-09-25T15:58:16.423Z,21.64
2023-09-25T16:03:19.728Z,21.57
2023-09-25T16:08:23.206Z,21.51
2023-09-25T16:13:26.437Z,21.39
2023-09-25T16:18:29.706Z,21.26
2023-09-25T16:23:33.266Z,21.12
2023-09-25T16:28:36.572Z,20.96
2023-09-25T16:33:39.846Z,20.82
2023-09-25T16:38:43.131Z,20.69
2023-09-25T16:43:46.292Z,20.55
2023-09-25T16:48:49.524Z,20.36
2023-09-25T16:53:52.954Z,20.23
2023-09-25T16:58:56.111Z,20.11
2023-09-25T17:04:00.615Z,19.97
2023-09-25T17:09:04.169Z,19.83
2023-09-25T17:14:09.622Z,19.70
2023-09-25T17:19:12.916Z,19.59
2023-09-25T17:24:16.379Z,19.47
2023-09-25T17:29:19.725Z,19.31
2023-09-25T17:34:24.339Z,19.13
2023-09-25T17:39:27.822Z,19.04
2023-09-25T17:44:31.166Z,18.96
2023-09-25T17:49:34.370Z,18.87
2023-09-25T17:54:37.589Z,18.82
2023-09-25T17:59:41.223Z,18.77
2023-09-25T18:04:45.237Z,18.73
2023-09-25T18:09:49.948Z,18.69
2023-09-25T18:14:53.387Z,18.66
2023-09-25T18:19:56.687Z,18.65
2023-09-25T18:24:59.891Z,18.61
2023-09-25T18:30:03.346Z,18.57
2023-09-25T18:35:06.650Z,18.54
2023-09-25T18:40:10.814Z,18.53
2023-09-25T18:45:14.393Z,18.52
2023-09-25T18:50:17.678Z,18.49
2023-09-25T18:55:20.997Z,18.44
2023-09-25T19:00:25.323Z,18.41
2023-09-25T19:05:28.718Z,18.39
2023-09-25T19:10:34.812Z,18.37
2023-09-25T19:15:38.647Z,18.34
2023-09-25T19:20:42.178Z,18.29
2023-09-25T19:25:46.453Z,18.28
2023-09-25T19:30:49.751Z,18.27
2023-09-25T19:35:53.020Z,18.22
2023-09-25T19:40:56.470Z,18.20
2023-09-25T19:45:59.830Z,18.20
2023-09-25T19:51:03.504Z,18.22
2023-09-25T19:56:07.609Z,18.22
2023-09-25T20:01:12.868Z,18.17
2023-09-25T20:06:16.223Z,18.09
2023-09-25T20:11:19.375Z,18.04
2023-09-25T20:16:22.734Z,18.00
2023-09-25T20:21:27.245Z,17.94
2023-09-25T20:26:30.774Z,17.88
2023-09-25T20:31:34.034Z,17.84
2023-09-25T20:36:37.502Z,17.77
2023-09-25T20:41:40.785Z,17.74
2023-09-25T20:46:49.559Z,17.70
2023-09-25T20:51:54.039Z,17.65
2023-09-25T20:56:57.403Z,17.62
2023-09-25T21:02:00.727Z,17.61
2023-09-25T21:07:04.402Z,17.53
2023-09-25T21:12:09.230Z,17.47
2023-09-25T21:17:12.645Z,17.45
2023-09-25T21:22:15.876Z,17.44
2023-09-25T21:27:19.680Z,17.40
2023-09-25T21:32:23.025Z,17.35
2023-09-25T21:37:26.330Z,17.32
2023-09-25T21:42:29.584Z,17.25
2023-09-25T21:47:32.999Z,17.20
2023-09-25T21:52:38.680Z,17.17
2023-09-25T21:57:45.153Z,17.13
2023-09-25T22:02:48.540Z,17.07
2023-09-25T22:07:54.172Z,17.03
2023-09-25T22:12:57.475Z,17.03
2023-09-25T22:18:01.023Z,17.04
2023-09-25T22:23:05.872Z,17.06
2023-09-25T22:28:09.178Z,17.08
2023-09-25T22:33:12.901Z,17.09
2023-09-25T22:38:16.567Z,17.06
2023-09-25T22:43:19.890Z,17.04
2023-09-25T22:48:23.383Z,17.05
2023-09-25T22:53:26.837Z,17.07
2023-09-25T22:58:30.927Z,17.08
2023-09-25T23:03:34.812Z,17.08
2023-09-25T23:08:38.494Z,17.08
2023-09-25T23:13:41.894Z,17.06
2023-09-25T23:18:45.086Z,17.04
2023-09-25T23:23:49.053Z,17.04
2023-09-25T23:28:52.979Z,17.01
2023-09-25T23:33:56.269Z,16.97
2023-09-25T23:38:59.666Z,16.93
2023-09-25T23:44:03.059Z,16.87
2023-09-25T23:49:06.347Z,16.84
2023-09-25T23:54:10.014Z,16.76
2023-09-25T23:59:13.157Z,16.69
